Stations météo

réclame
Mon MeteoGroup
Bealach, Grande-Bretagne (3039): Température de l'air & dewpoint: 11.10.2018 19:00:00 - 17.10.2018 19:00:00 (BST)Bealach, Grande-Bretagne (3039): Vitesse du vent & gusts: 11.10.2018 19:00:00 - 17.10.2018 19:00:00 (BST)Bealach, Grande-Bretagne (3039): Direction du vent: 11.10.2018 19:00:00 - 17.10.2018 19:00:00 (BST)
Date & Time tt [°C] td [°C] ff [km/h] ff [knt] fx [km/h] fx [knt] dd
17.10.2018 19:00:00 3,0 3,0 31 17 - - WSW
17.10.2018 18:00:00 2,7 2,7 29 16 - - W
17.10.2018 17:00:00 3,3 3,3 37 20 - - W
17.10.2018 16:00:00 3,2 3,2 35 19 50 27 W
17.10.2018 15:00:00 3,8 3,8 39 21 46 25 W
17.10.2018 14:00:00 3,1 3,1 34 18 54 29 W
17.10.2018 13:00:00 2,1 2,1 48 26 65 35 W
17.10.2018 12:00:00 3,2 3,2 35 19 50 27 W
17.10.2018 11:00:00 3,2 3,2 42 23 50 27 WSW
17.10.2018 10:00:00 2,9 2,9 34 18 - - WSW
17.10.2018 09:00:00 2,7 2,7 39 21 46 25 WSW
17.10.2018 08:00:00 3,0 3,0 34 18 48 26 WSW
17.10.2018 07:00:00 2,9 2,9 37 20 59 32 W
17.10.2018 06:00:00 3,2 3,2 46 25 59 32 WSW
17.10.2018 05:00:00 3,2 3,2 52 28 65 35 WSW
17.10.2018 04:00:00 3,7 3,7 42 23 55 30 WSW
17.10.2018 03:00:00 3,5 3,5 39 21 57 31 WSW
17.10.2018 02:00:00 4,7 4,7 37 20 67 36 WSW
17.10.2018 01:00:00 4,7 4,7 44 24 54 29 SSW
17.10.2018 00:00:00 5,0 5,0 41 22 57 31 SSW
16.10.2018 23:00:00 5,6 5,6 48 26 59 32 SSW
16.10.2018 22:00:00 5,5 5,5 44 24 70 38 SW
16.10.2018 21:00:00 6,2 6,2 61 33 76 41 SSW
16.10.2018 20:00:00 6,7 6,7 52 28 98 53 SW
16.10.2018 19:00:00 7,1 7,1 65 35 106 57 SSW
16.10.2018 18:00:00 7,0 7,0 61 33 104 56 S
16.10.2018 17:00:00 6,8 6,8 68 37 106 57 S
16.10.2018 16:00:00 6,8 6,8 74 40 104 56 SSW
16.10.2018 15:00:00 6,7 6,7 76 41 111 60 S
16.10.2018 14:00:00 6,8 6,8 78 42 120 65 S
16.10.2018 13:00:00 6,8 6,8 76 41 117 63 S
16.10.2018 12:00:00 6,0 6,0 39 21 91 49 S
16.10.2018 11:00:00 5,5 4,8 29 16 109 59 S
16.10.2018 10:00:00 6,3 0,9 50 27 98 53 SSE
16.10.2018 09:00:00 6,2 0,6 54 29 109 59 SSE
16.10.2018 08:00:00 5,7 1,8 67 36 119 64 S
16.10.2018 07:00:00 5,4 -0,6 55 30 85 46 SSE
16.10.2018 06:00:00 5,0 -0,5 41 22 85 46 SSE
16.10.2018 05:00:00 4,8 -1,4 46 25 76 41 SSE
16.10.2018 04:00:00 4,8 -2,4 35 19 89 48 SSE
16.10.2018 03:00:00 5,1 -3,0 37 20 70 38 SSE
16.10.2018 02:00:00 4,9 -0,6 48 26 61 33 SSE
16.10.2018 01:00:00 4,6 1,0 34 18 65 35 SSE
16.10.2018 00:00:00 4,3 1,9 16 9 65 35 SE
15.10.2018 23:00:00 4,7 3,1 34 18 57 31 SSE
15.10.2018 22:00:00 4,9 4,3 35 19 55 30 SSE
15.10.2018 21:00:00 4,6 4,6 34 18 70 38 SSE
15.10.2018 20:00:00 4,6 4,6 24 13 48 26 SSE
15.10.2018 19:00:00 5,2 5,2 24 13 55 30 S
15.10.2018 18:00:00 5,1 5,1 42 23 54 29 SSW
15.10.2018 17:00:00 4,6 4,6 42 23 55 30 SSW
15.10.2018 16:00:00 5,1 5,1 37 20 48 26 SSW
15.10.2018 15:00:00 4,7 4,7 29 16 50 27 SSW
15.10.2018 14:00:00 5,0 5,0 37 20 57 31 SSW
15.10.2018 13:00:00 4,9 4,9 46 25 61 33 SSW
15.10.2018 12:00:00 4,7 4,7 42 23 65 35 SSW
15.10.2018 11:00:00 4,9 4,9 52 28 67 36 SSW
15.10.2018 10:00:00 4,6 4,6 42 23 61 33 SSW
15.10.2018 09:00:00 4,5 4,5 48 26 61 33 SSW
15.10.2018 08:00:00 4,4 4,4 54 29 65 35 SSW
15.10.2018 07:00:00 4,5 4,5 52 28 65 35 SSW
15.10.2018 06:00:00 4,1 4,1 50 27 70 38 S
15.10.2018 05:00:00 4,1 4,1 52 28 70 38 S
15.10.2018 04:00:00 3,9 3,9 54 29 72 39 SSW
15.10.2018 03:00:00 3,6 3,6 48 26 65 35 SSW
15.10.2018 02:00:00 3,7 3,7 48 26 63 34 S
15.10.2018 01:00:00 3,6 3,6 46 25 57 31 SSW
15.10.2018 00:00:00 3,5 3,5 46 25 55 30 S
14.10.2018 23:00:00 3,5 3,5 34 18 55 30 S
14.10.2018 22:00:00 3,2 3,2 46 25 57 31 SSW
14.10.2018 21:00:00 3,3 3,3 39 21 55 30 SSW
14.10.2018 20:00:00 3,4 3,4 41 22 55 30 SSW
14.10.2018 19:00:00 3,3 3,3 44 24 63 34 SSW
14.10.2018 18:00:00 2,9 2,9 44 24 63 34 SSW
14.10.2018 17:00:00 4,0 4,0 24 13 52 28 SSW
14.10.2018 16:00:00 4,4 4,3 34 18 50 27 SSW
14.10.2018 15:00:00 4,3 4,3 35 19 48 26 SSW
14.10.2018 14:00:00 3,6 3,6 39 21 50 27 SSW
14.10.2018 13:00:00 3,1 3,1 31 17 46 25 SSW
14.10.2018 12:00:00 3,1 3,1 34 18 - - SSW
14.10.2018 11:00:00 3,0 3,0 31 17 - - SSW
14.10.2018 10:00:00 2,4 2,4 16 9 - - S
14.10.2018 09:00:00 2,5 2,5 16 9 - - SW
14.10.2018 08:00:00 2,4 2,4 18 10 - - WSW
14.10.2018 07:00:00 2,2 2,2 21 11 - - WSW
14.10.2018 06:00:00 2,2 2,2 21 11 - - W
14.10.2018 05:00:00 2,6 2,6 22 12 - - SW
14.10.2018 04:00:00 2,2 2,2 15 8 - - WNW
14.10.2018 03:00:00 2,2 2,2 26 14 46 25 NNW
14.10.2018 02:00:00 1,9 1,9 41 22 54 29 NNW
14.10.2018 01:00:00 2,9 2,9 48 26 57 31 NNW
14.10.2018 00:00:00 3,3 3,3 26 14 - - NNW
13.10.2018 23:00:00 3,2 3,2 16 9 - - N
13.10.2018 22:00:00 3,3 3,3 18 10 - - NNE
13.10.2018 21:00:00 3,4 3,4 16 9 - - NNE
13.10.2018 20:00:00 3,3 3,3 16 9 - - NNE
13.10.2018 19:00:00 3,4 3,4 9 5 - - E
13.10.2018 18:00:00 4,0 4,0 16 9 - - E
13.10.2018 17:00:00 4,1 4,1 9 5 - - ENE
13.10.2018 16:00:00 4,8 4,8 9 5 - - E
13.10.2018 15:00:00 4,8 4,8 15 8 - - E
13.10.2018 14:00:00 4,8 4,8 18 10 - - E
13.10.2018 13:00:00 4,6 4,6 15 8 - - ESE
13.10.2018 12:00:00 4,8 4,8 4 2 - - ESE
13.10.2018 11:00:00 4,8 4,8 18 10 - - S
13.10.2018 10:00:00 5,0 5,0 16 9 48 26 S
13.10.2018 09:00:00 5,3 5,3 34 18 50 27 S
13.10.2018 08:00:00 5,1 5,1 41 22 55 30 SSW
13.10.2018 07:00:00 5,1 5,1 46 25 65 35 SSW
13.10.2018 06:00:00 5,4 5,4 46 25 72 39 SSW
13.10.2018 05:00:00 5,1 5,1 63 34 83 45 SSW
13.10.2018 04:00:00 5,6 5,6 70 38 93 50 SSW
13.10.2018 03:00:00 5,6 5,6 70 38 93 50 SSW
13.10.2018 02:00:00 5,5 5,5 72 39 102 55 SSW
13.10.2018 01:00:00 5,4 5,4 78 42 124 67 SSW
13.10.2018 00:00:00 5,9 5,9 94 51 143 77 SSW
12.10.2018 23:00:00 6,2 6,2 119 64 156 84 SSW
12.10.2018 22:00:00 6,5 6,5 83 45 154 83 S
12.10.2018 21:00:00 6,9 5,9 46 25 117 63 S
12.10.2018 20:00:00 7,3 4,9 37 20 109 59 S
12.10.2018 19:00:00 7,3 5,3 42 23 128 69 SSE
12.10.2018 18:00:00 7,8 5,2 42 23 150 81 SSE
12.10.2018 17:00:00 8,4 4,1 57 31 126 68 SSE
12.10.2018 16:00:00 7,9 4,7 91 49 189 102 SSE
12.10.2018 15:00:00 9,4 4,1 85 46 154 83 SSE
12.10.2018 14:00:00 9,0 3,7 80 43 191 103 SSE
12.10.2018 13:00:00 8,5 3,9 83 45 146 79 SSE
12.10.2018 12:00:00 8,2 6,3 68 37 143 77 SSE
12.10.2018 11:00:00 7,8 7,6 50 27 111 60 SSE
12.10.2018 10:00:00 7,1 7,1 29 16 122 66 S
12.10.2018 09:00:00 5,6 5,6 34 18 111 60 SE
12.10.2018 08:00:00 5,4 5,4 44 24 122 66 E
12.10.2018 07:00:00 4,9 4,9 67 36 104 56 E
12.10.2018 06:00:00 5,7 5,1 57 31 98 53 E
12.10.2018 05:00:00 5,9 4,7 55 30 81 44 ESE
12.10.2018 04:00:00 4,8 4,6 34 18 70 38 ESE
12.10.2018 03:00:00 5,5 5,2 44 24 65 35 E
12.10.2018 02:00:00 5,5 5,5 13 7 - - ESE
12.10.2018 01:00:00 5,4 5,4 13 7 124 67 ESE
12.10.2018 00:00:00 5,8 5,8 29 16 54 29 SSE
11.10.2018 23:00:00 5,5 5,5 26 14 48 26 SSE
11.10.2018 22:00:00 5,5 5,5 41 22 70 38 S
11.10.2018 21:00:00 5,6 5,6 39 21 54 29 S
11.10.2018 20:00:00 5,4 5,4 42 23 63 34 S
11.10.2018 19:00:00 5,3 5,3 59 32 74 40 SSW

tt = Température de l'air
td = dewpoint
ff = Vitesse du vent
fx = gusts
dd = Direction du vent

stations d'obs. à proximité